Main page


Airports :

Moscow-Sheremetyevo, Russia

Sheremetyevo International Airport

latitude: 55-59N, longitude: 037-30E, elevation: 190 m

Current weather observation

The report was made 20 minutes ago, at 17:30 UTC
Wind 4 kt from the South/Southwest, varying between South and West
Temperature 0°C
Humidity 43%
Pressure 1010 hPa
Visibility 10 km or more
no clouds below 1500 m and no cumulonimbus

METAR: UUEE 201730Z 21002MPS 170V260 CAVOK 00/M11 Q1010 R24R/150057 R24L/150057 NOSIG

Time: 20:50 (17:50 UTC)


The report was made 55 minutes ago, at 16:55 UTC
Forecast valid from 20 at 18 UTC to 21 at 18 UTC
Wind 2 kt from variable directions
Visibility 10 km or more
Scattered clouds at a height of 2000 ft
from 21 at 07 UTC to 21 at 09 UTC
Wind 10 kt from the North
from 21 at 12 UTC to 21 at 18 UTC
Visibility: 3100 m
Broken clouds at a height of 1100 ft
light snow

TAF: UUEE 201655Z 2018/2118 VRB01MPS 9999 SCT020 TX02/2111Z TNM07/2104Z BECMG 2107/2109 36005MPS TEMPO 2112/2118 3100 -SN BKN011

Weather observations and forecasts of more than 4000 airports (METAR and TAF reports).

The available stations are represented by yellow and red dots on the map.

Hover mouse over dot to see the name of the station.

Then click to see weather observations and forecasts.

To change the map : click on the green buttons with a black cross to zoom in, on the green button with a dash to zoom out, or on the green arrows for adjacent maps.